createdAt,value
2018-04-27T00:00:43.619Z,3.90
2018-04-27T00:03:13.856Z,3.50
2018-04-27T00:05:44.749Z,3.10
2018-04-27T00:08:15.171Z,3.07
2018-04-27T00:10:45.080Z,3.23
2018-04-27T00:13:14.841Z,3.40
2018-04-27T00:15:44.507Z,3.30
2018-04-27T00:18:14.625Z,3.37
2018-04-27T00:20:44.262Z,2.90
2018-04-27T00:23:15.387Z,3.37
2018-04-27T00:25:44.916Z,3.43
2018-04-27T00:28:14.577Z,3.30
2018-04-27T00:30:44.261Z,3.60
2018-04-27T00:33:14.597Z,3.53
2018-04-27T00:35:44.835Z,3.53
2018-04-27T00:38:14.681Z,3.30
2018-04-27T00:40:44.289Z,3.67
2018-04-27T00:43:14.144Z,3.53
2018-04-27T00:45:44.847Z,3.80
2018-04-27T00:48:15.661Z,3.70
2018-04-27T00:50:45.404Z,4.17
2018-04-27T00:53:16.394Z,4.30
2018-04-27T00:55:46.113Z,3.57
2018-04-27T00:58:15.744Z,3.93
2018-04-27T01:00:45.547Z,3.90
2018-04-27T01:03:15.039Z,3.67
2018-04-27T01:05:44.647Z,3.80
2018-04-27T01:08:14.481Z,3.20
2018-04-27T01:10:44.697Z,3.60
2018-04-27T01:13:14.389Z,3.77
2018-04-27T01:15:44.048Z,3.57
2018-04-27T01:18:14.609Z,3.40
2018-04-27T01:20:46.810Z,3.40
2018-04-27T01:23:17.166Z,3.53
2018-04-27T01:25:46.831Z,3.40
2018-04-27T01:28:17.603Z,3.50
2018-04-27T01:30:47.249Z,3.70
2018-04-27T01:33:17.609Z,3.73
2018-04-27T01:35:47.340Z,3.53
2018-04-27T01:38:17.151Z,3.47
2018-04-27T01:40:46.839Z,3.90
2018-04-27T01:43:17.233Z,3.90
2018-04-27T01:45:47.077Z,3.60
2018-04-27T01:48:17.523Z,3.90
2018-04-27T01:50:48.923Z,3.80
2018-04-27T01:53:18.487Z,4.00
2018-04-27T01:55:48.405Z,3.97
2018-04-27T01:58:19.034Z,4.03
2018-04-27T02:00:49.537Z,4.03
2018-04-27T02:03:19.010Z,4.07
2018-04-27T02:05:49.504Z,4.30
2018-04-27T02:08:19.182Z,3.97
2018-04-27T02:10:49.488Z,3.90
2018-04-27T02:13:19.148Z,4.00
2018-04-27T02:15:50.078Z,3.90
2018-04-27T02:18:19.861Z,3.73
2018-04-27T02:20:51.556Z,3.53
2018-04-27T02:23:22.621Z,3.47
2018-04-27T02:25:53.683Z,3.30
2018-04-27T02:28:24.325Z,3.20
2018-04-27T02:30:55.015Z,3.00
2018-04-27T02:33:24.723Z,2.70
2018-04-27T02:35:54.212Z,3.00
2018-04-27T02:38:23.751Z,2.93
2018-04-27T02:40:53.557Z,3.63
2018-04-27T02:43:23.153Z,3.90
2018-04-27T02:45:52.708Z,3.93
2018-04-27T02:48:22.334Z,3.30
2018-04-27T02:50:51.816Z,3.03
2018-04-27T02:53:22.140Z,2.60
2018-04-27T02:55:52.533Z,2.90
2018-04-27T02:58:22.056Z,2.70
2018-04-27T03:00:52.707Z,2.40
2018-04-27T03:03:23.089Z,2.90
2018-04-27T03:05:52.971Z,2.57
2018-04-27T03:08:22.664Z,2.60
2018-04-27T03:10:53.011Z,2.50
2018-04-27T03:13:22.619Z,2.57
2018-04-27T03:15:58.574Z,2.50
2018-04-27T03:18:29.251Z,2.67
2018-04-27T03:20:59.999Z,2.70
2018-04-27T03:23:30.513Z,2.90
2018-04-27T03:26:00.321Z,2.80
2018-04-27T03:28:29.796Z,3.10
2018-04-27T03:31:04.006Z,2.60
2018-04-27T03:33:34.537Z,3.20
2018-04-27T03:36:05.069Z,2.90
2018-04-27T03:38:34.563Z,2.93
2018-04-27T03:41:05.232Z,2.70
2018-04-27T03:43:34.930Z,2.70
2018-04-27T03:46:05.031Z,2.67
2018-04-27T03:48:36.141Z,2.90
2018-04-27T03:51:05.910Z,2.30
2018-04-27T03:53:36.073Z,3.00
2018-04-27T03:56:07.181Z,2.80
2018-04-27T03:58:36.905Z,3.00
2018-04-27T04:01:24.523Z,2.83
2018-04-27T04:04:11.827Z,3.37
2018-04-27T04:06:42.336Z,3.30
2018-04-27T04:09:12.810Z,3.40
2018-04-27T04:11:42.631Z,3.43
2018-04-27T04:14:12.140Z,3.50
2018-04-27T04:16:41.726Z,3.60
2018-04-27T04:19:11.560Z,2.93
2018-04-27T04:21:41.181Z,3.13
2018-04-27T04:24:11.629Z,3.57
2018-04-27T04:26:42.137Z,3.10
2018-04-27T04:29:11.819Z,3.20
2018-04-27T04:31:41.587Z,2.90
2018-04-27T04:34:11.941Z,3.13
2018-04-27T04:36:41.567Z,3.13
2018-04-27T04:39:11.081Z,3.27
2018-04-27T04:41:40.827Z,3.30
2018-04-27T04:44:11.206Z,3.40
2018-04-27T04:46:40.694Z,3.33
2018-04-27T04:49:10.233Z,3.20
2018-04-27T04:51:39.946Z,3.30
2018-04-27T04:54:09.597Z,3.37
2018-04-27T04:56:39.762Z,3.07
2018-04-27T04:59:09.245Z,3.10
2018-04-27T05:01:42.034Z,3.70
2018-04-27T05:04:14.219Z,2.93
2018-04-27T05:06:47.138Z,3.37
2018-04-27T05:09:17.845Z,5.23
2018-04-27T05:11:48.651Z,5.53
2018-04-27T05:14:18.958Z,5.33
2018-04-27T05:16:49.378Z,7.23
2018-04-27T05:19:19.732Z,6.57
2018-04-27T05:21:49.811Z,6.17
2018-04-27T05:24:20.330Z,4.50
2018-04-27T05:26:50.571Z,4.40
2018-04-27T05:29:20.868Z,4.60
2018-04-27T05:31:50.869Z,4.90
2018-04-27T05:34:20.416Z,4.57
2018-04-27T05:36:50.782Z,4.47
2018-04-27T05:39:20.474Z,4.27
2018-04-27T05:41:50.065Z,4.03
2018-04-27T05:44:19.784Z,4.10
2018-04-27T05:46:49.650Z,4.70
2018-04-27T05:49:19.409Z,3.93
2018-04-27T05:51:49.091Z,4.53
2018-04-27T05:54:18.836Z,4.33
2018-04-27T05:56:48.769Z,4.53
2018-04-27T05:59:19.383Z,4.60
2018-04-27T06:01:49.826Z,4.50
2018-04-27T06:04:19.567Z,4.67
2018-04-27T06:06:49.381Z,4.47
2018-04-27T06:09:19.126Z,4.93
2018-04-27T06:11:49.386Z,4.10
2018-04-27T06:14:18.983Z,4.83
2018-04-27T06:16:49.534Z,4.50
2018-04-27T06:19:19.125Z,5.10
2018-04-27T06:21:48.853Z,4.50
2018-04-27T06:24:18.630Z,4.40
2018-04-27T06:26:48.389Z,4.50
2018-04-27T06:29:18.072Z,5.00
2018-04-27T06:31:48.241Z,4.57
2018-04-27T06:34:18.568Z,4.83
2018-04-27T06:36:48.432Z,5.00
2018-04-27T06:39:18.051Z,5.60
2018-04-27T06:41:55.928Z,4.67
2018-04-27T06:44:26.390Z,4.90
2018-04-27T06:46:56.273Z,4.70
2018-04-27T06:49:26.026Z,5.37
2018-04-27T06:51:56.122Z,4.73
2018-04-27T06:54:26.651Z,4.87
2018-04-27T06:56:57.104Z,4.50
2018-04-27T06:59:26.959Z,4.40
2018-04-27T07:01:56.623Z,5.00
2018-04-27T07:04:26.623Z,4.40
2018-04-27T07:06:57.349Z,4.47
2018-04-27T07:09:27.195Z,4.63
2018-04-27T07:11:57.233Z,4.37
2018-04-27T07:14:27.943Z,4.30
2018-04-27T07:16:57.707Z,4.78
2018-04-27T07:19:27.478Z,25.75
2018-04-27T07:21:57.296Z,47.95
2018-04-27T07:24:27.009Z,64.97
2018-04-27T07:26:56.589Z,50.70
2018-04-27T07:29:26.323Z,24.17
2018-04-27T07:32:05.201Z,17.30
2018-04-27T07:34:34.719Z,10.73
2018-04-27T07:37:04.471Z,17.75
2018-04-27T07:39:34.807Z,13.15
2018-04-27T07:42:04.639Z,4.60
2018-04-27T07:44:35.361Z,6.47
2018-04-27T07:47:06.449Z,5.50
2018-04-27T07:49:36.718Z,5.50
2018-04-27T07:52:06.826Z,4.78
2018-04-27T07:54:38.111Z,4.30
2018-04-27T07:57:08.058Z,4.40
2018-04-27T07:59:38.309Z,4.18
2018-04-27T08:02:07.925Z,3.90
2018-04-27T08:04:40.003Z,4.00
2018-04-27T08:07:09.805Z,4.87
2018-04-27T08:09:40.949Z,4.65
2018-04-27T08:12:11.366Z,4.72
2018-04-27T08:14:41.977Z,4.95
2018-04-27T08:17:11.714Z,5.82
2018-04-27T08:19:42.339Z,5.22
2018-04-27T08:22:12.266Z,4.93
2018-04-27T08:24:43.003Z,4.40
2018-04-27T08:27:13.056Z,4.50
2018-04-27T08:29:44.684Z,5.03
2018-04-27T08:32:14.907Z,4.65
2018-04-27T08:34:45.424Z,5.03
2018-04-27T08:37:15.178Z,4.68
2018-04-27T08:39:46.034Z,4.57
2018-04-27T08:42:15.778Z,4.70
2018-04-27T08:44:45.517Z,3.85
2018-04-27T08:47:15.098Z,4.12
2018-04-27T08:49:44.715Z,5.00
2018-04-27T08:52:14.424Z,4.18
2018-04-27T08:54:44.266Z,4.53
2018-04-27T08:57:13.966Z,4.50
2018-04-27T08:59:45.442Z,4.43
2018-04-27T09:02:15.828Z,4.12
2018-04-27T09:04:45.412Z,5.15
2018-04-27T09:07:15.123Z,4.75
2018-04-27T09:09:46.033Z,4.35
2018-04-27T09:12:18.968Z,4.28
2018-04-27T09:14:49.742Z,4.60
2018-04-27T09:17:20.304Z,4.50
2018-04-27T09:19:52.186Z,4.25
2018-04-27T09:22:22.225Z,3.97
2018-04-27T09:24:51.763Z,4.12
2018-04-27T09:27:21.451Z,4.50
2018-04-27T09:29:51.214Z,4.03
2018-04-27T09:32:20.818Z,4.03
2018-04-27T09:34:50.320Z,3.78
2018-04-27T09:37:19.926Z,4.22
2018-04-27T09:39:54.241Z,4.18
2018-04-27T09:42:29.193Z,3.80
2018-04-27T09:45:03.464Z,3.58
2018-04-27T09:47:55.227Z,4.25
2018-04-27T09:50:38.640Z,3.85
2018-04-27T09:53:09.953Z,4.80
2018-04-27T09:55:40.101Z,3.75
2018-04-27T09:58:10.488Z,4.40
2018-04-27T10:00:40.192Z,4.30
2018-04-27T10:03:10.018Z,3.67
2018-04-27T10:05:45.016Z,3.78
2018-04-27T10:08:14.767Z,4.03
2018-04-27T10:10:44.329Z,4.32
2018-04-27T10:13:14.794Z,3.62
2018-04-27T10:15:44.406Z,3.90
2018-04-27T10:18:15.122Z,3.72
2018-04-27T10:20:44.779Z,4.00
2018-04-27T10:23:14.567Z,3.75
2018-04-27T10:25:44.487Z,4.47
2018-04-27T10:28:14.003Z,3.92
2018-04-27T10:30:43.791Z,3.70
2018-04-27T10:33:13.618Z,4.28
2018-04-27T10:35:43.303Z,3.85
2018-04-27T10:38:12.854Z,4.45
2018-04-27T10:40:54.739Z,3.47
2018-04-27T10:43:24.312Z,3.90
2018-04-27T10:45:53.865Z,4.07
2018-04-27T10:48:24.005Z,3.72
2018-04-27T10:50:53.875Z,3.83
2018-04-27T10:53:24.612Z,3.80
2018-04-27T10:55:54.325Z,4.30
2018-04-27T10:58:24.844Z,4.35
2018-04-27T11:00:54.626Z,4.00
2018-04-27T11:03:24.423Z,3.55
2018-04-27T11:05:55.120Z,3.35
2018-04-27T11:08:25.811Z,3.60
2018-04-27T11:10:55.463Z,3.65
2018-04-27T11:13:25.226Z,3.40
2018-04-27T11:15:54.966Z,4.05
2018-04-27T11:18:25.599Z,3.70
2018-04-27T11:20:55.233Z,3.62
2018-04-27T11:23:25.019Z,3.30
2018-04-27T11:25:55.782Z,3.50
2018-04-27T11:28:26.197Z,3.55
2018-04-27T11:30:55.904Z,3.60
2018-04-27T11:33:25.700Z,3.55
2018-04-27T11:35:55.494Z,3.45
2018-04-27T11:38:25.167Z,2.75
2018-04-27T11:40:54.738Z,3.40
2018-04-27T11:43:24.256Z,3.08
2018-04-27T11:45:54.889Z,2.33
2018-04-27T11:48:24.835Z,2.20
2018-04-27T11:50:54.639Z,2.45
2018-04-27T11:53:24.617Z,2.60
2018-04-27T11:55:55.792Z,1.70
2018-04-27T11:58:26.547Z,2.12
2018-04-27T12:00:56.417Z,1.85
2018-04-27T12:03:27.025Z,2.10
2018-04-27T12:05:57.165Z,2.20
2018-04-27T12:08:27.919Z,2.40
2018-04-27T12:10:57.878Z,2.28
2018-04-27T12:13:27.576Z,2.90
2018-04-27T12:15:58.038Z,2.87
2018-04-27T12:18:28.014Z,3.00
2018-04-27T12:20:58.261Z,3.10
2018-04-27T12:23:27.828Z,2.67
2018-04-27T12:25:58.177Z,2.80
2018-04-27T12:28:28.573Z,2.70
2018-04-27T12:30:58.161Z,3.28
2018-04-27T12:33:27.647Z,2.67
2018-04-27T12:35:57.293Z,3.45
2018-04-27T12:38:26.950Z,3.08
2018-04-27T12:40:56.565Z,2.55
2018-04-27T12:43:26.228Z,2.85
2018-04-27T12:45:55.866Z,3.25
2018-04-27T12:48:26.354Z,3.42
2018-04-27T12:50:57.096Z,2.53
2018-04-27T12:53:26.803Z,2.72
2018-04-27T12:55:56.474Z,3.58
2018-04-27T12:58:26.142Z,3.17
2018-04-27T13:00:55.826Z,3.03
2018-04-27T13:03:25.687Z,3.47
2018-04-27T13:05:56.281Z,2.85
2018-04-27T13:08:26.705Z,3.65
2018-04-27T13:10:57.199Z,3.60
2018-04-27T13:13:27.579Z,3.60
2018-04-27T13:15:58.048Z,3.83
2018-04-27T13:18:27.833Z,3.70
2018-04-27T13:20:57.922Z,3.90
2018-04-27T13:23:27.457Z,3.30
2018-04-27T13:25:57.001Z,3.30
2018-04-27T13:28:26.484Z,3.40
2018-04-27T13:30:56.941Z,3.58
2018-04-27T13:33:26.822Z,3.90
2018-04-27T13:35:56.599Z,3.40
2018-04-27T13:38:26.140Z,4.05
2018-04-27T13:40:56.733Z,3.83
2018-04-27T13:43:26.339Z,3.58
2018-04-27T13:45:55.884Z,3.50
2018-04-27T13:48:26.479Z,3.72
2018-04-27T13:50:56.177Z,3.28
2018-04-27T13:53:25.877Z,3.22
2018-04-27T13:55:55.624Z,3.78
2018-04-27T13:58:45.671Z,3.53
2018-04-27T14:01:41.265Z,4.03
2018-04-27T14:08:58.066Z,3.97
2018-04-27T14:11:27.984Z,3.65
2018-04-27T14:13:57.748Z,3.50
2018-04-27T14:16:27.868Z,3.62
2018-04-27T14:18:58.541Z,3.80
2018-04-27T14:21:28.276Z,3.58
2018-04-27T14:23:57.804Z,3.80
2018-04-27T14:26:27.358Z,3.90
2018-04-27T14:28:56.980Z,3.60
2018-04-27T14:31:26.504Z,3.72
2018-04-27T14:33:57.516Z,4.00
2018-04-27T14:36:27.123Z,4.10
2018-04-27T14:38:56.832Z,3.87
2018-04-27T14:41:26.554Z,4.00
2018-04-27T14:43:56.857Z,3.95
2018-04-27T14:46:26.386Z,4.15
2018-04-27T14:48:55.947Z,3.87
2018-04-27T14:51:25.611Z,3.97
2018-04-27T14:53:55.291Z,4.37
2018-04-27T14:56:24.930Z,3.40
2018-04-27T14:58:55.547Z,3.75
